sensor_id;sensor_type;location;lat;lon;timestamp;pressure;altitude;pressure_sealevel;temperature;humidity
34103;BME280;20381;54.498;18.206;2023-04-03T00:01:42;100874.95;;;0.91;64.00
34103;BME280;20381;54.498;18.206;2023-04-03T00:04:08;100874.55;;;0.94;63.90
34103;BME280;20381;54.498;18.206;2023-04-03T00:06:35;100880.61;;;1.01;63.91
34103;BME280;20381;54.498;18.206;2023-04-03T00:09:01;100870.38;;;1.05;63.90
34103;BME280;20381;54.498;18.206;2023-04-03T00:11:28;100878.14;;;1.11;64.11
34103;BME280;20381;54.498;18.206;2023-04-03T00:13:54;100879.48;;;1.16;63.90
34103;BME280;20381;54.498;18.206;2023-04-03T00:16:20;100885.09;;;1.20;64.01
34103;BME280;20381;54.498;18.206;2023-04-03T00:18:47;100880.83;;;1.21;64.05
34103;BME280;20381;54.498;18.206;2023-04-03T00:21:13;100881.68;;;1.23;64.04
34103;BME280;20381;54.498;18.206;2023-04-03T00:23:41;100881.63;;;1.17;63.96
34103;BME280;20381;54.498;18.206;2023-04-03T00:26:07;100882.52;;;1.19;64.24
34103;BME280;20381;54.498;18.206;2023-04-03T00:28:33;100874.39;;;1.22;64.21
34103;BME280;20381;54.498;18.206;2023-04-03T00:31:00;100879.11;;;1.23;64.13
34103;BME280;20381;54.498;18.206;2023-04-03T00:33:26;100881.70;;;1.26;64.02
34103;BME280;20381;54.498;18.206;2023-04-03T00:35:53;100879.94;;;1.19;64.02
34103;BME280;20381;54.498;18.206;2023-04-03T00:38:19;100882.44;;;1.09;63.85
34103;BME280;20381;54.498;18.206;2023-04-03T00:40:48;100880.20;;;1.03;63.98
34103;BME280;20381;54.498;18.206;2023-04-03T00:43:23;100879.72;;;0.97;63.97
34103;BME280;20381;54.498;18.206;2023-04-03T00:45:52;100882.60;;;0.86;63.81
34103;BME280;20381;54.498;18.206;2023-04-03T00:48:21;100885.47;;;0.75;63.78
34103;BME280;20381;54.498;18.206;2023-04-03T00:50:49;100883.20;;;0.63;63.66
34103;BME280;20381;54.498;18.206;2023-04-03T00:53:19;100881.45;;;0.59;63.69
34103;BME280;20381;54.498;18.206;2023-04-03T00:55:48;100889.56;;;0.57;63.86
34103;BME280;20381;54.498;18.206;2023-04-03T00:58:17;100881.49;;;0.62;63.91
34103;BME280;20381;54.498;18.206;2023-04-03T01:00:48;100882.41;;;0.69;64.03
34103;BME280;20381;54.498;18.206;2023-04-03T01:03:15;100882.11;;;0.80;64.13
34103;BME280;20381;54.498;18.206;2023-04-03T01:05:41;100881.37;;;0.92;64.17
34103;BME280;20381;54.498;18.206;2023-04-03T01:08:07;100886.64;;;1.01;64.16
34103;BME280;20381;54.498;18.206;2023-04-03T01:10:34;100883.23;;;1.05;63.81
34103;BME280;20381;54.498;18.206;2023-04-03T01:13:01;100884.09;;;1.06;64.02
34103;BME280;20381;54.498;18.206;2023-04-03T01:15:27;100887.09;;;1.05;63.73
34103;BME280;20381;54.498;18.206;2023-04-03T01:17:59;100896.12;;;1.08;63.98
34103;BME280;20381;54.498;18.206;2023-04-03T01:28:13;100886.96;;;1.35;63.66
34103;BME280;20381;54.498;18.206;2023-04-03T01:30:51;100893.87;;;1.42;63.59
34103;BME280;20381;54.498;18.206;2023-04-03T01:33:18;100882.64;;;1.34;62.97
34103;BME280;20381;54.498;18.206;2023-04-03T01:35:45;100885.19;;;1.31;62.85
34103;BME280;20381;54.498;18.206;2023-04-03T01:38:12;100887.77;;;1.31;63.12
34103;BME280;20381;54.498;18.206;2023-04-03T01:40:38;100881.81;;;1.35;63.36
34103;BME280;20381;54.498;18.206;2023-04-03T01:43:04;100889.50;;;1.33;62.95
34103;BME280;20381;54.498;18.206;2023-04-03T01:45:30;100886.42;;;1.25;62.98
34103;BME280;20381;54.498;18.206;2023-04-03T01:47:59;100888.59;;;1.27;63.33
34103;BME280;20381;54.498;18.206;2023-04-03T01:50:25;100892.94;;;1.34;63.06
34103;BME280;20381;54.498;18.206;2023-04-03T01:52:51;100889.56;;;1.38;63.11
34103;BME280;20381;54.498;18.206;2023-04-03T01:55:17;100885.30;;;1.42;63.16
34103;BME280;20381;54.498;18.206;2023-04-03T01:57:43;100886.15;;;1.42;63.13
34103;BME280;20381;54.498;18.206;2023-04-03T02:00:11;100890.87;;;1.41;63.26
34103;BME280;20381;54.498;18.206;2023-04-03T02:02:38;100888.74;;;1.45;63.15
34103;BME280;20381;54.498;18.206;2023-04-03T02:05:06;100891.32;;;1.45;63.13
34103;BME280;20381;54.498;18.206;2023-04-03T02:07:33;100894.30;;;1.40;62.95
34103;BME280;20381;54.498;18.206;2023-04-03T02:09:59;100896.34;;;1.30;62.77
34103;BME280;20381;54.498;18.206;2023-04-03T02:12:28;100894.47;;;1.14;62.86
34103;BME280;20381;54.498;18.206;2023-04-03T02:14:54;100904.76;;;1.14;63.11
34103;BME280;20381;54.498;18.206;2023-04-03T02:17:20;100905.64;;;1.16;62.83
34103;BME280;20381;54.498;18.206;2023-04-03T02:19:46;100899.64;;;1.15;62.56
34103;BME280;20381;54.498;18.206;2023-04-03T02:22:13;100907.73;;;1.11;62.90
34103;BME280;20381;54.498;18.206;2023-04-03T02:24:39;100902.16;;;1.10;62.76
34103;BME280;20381;54.498;18.206;2023-04-03T02:27:08;100898.75;;;1.15;62.74
34103;BME280;20381;54.498;18.206;2023-04-03T02:29:34;100894.49;;;1.17;62.82
34103;BME280;20381;54.498;18.206;2023-04-03T02:32:00;100900.87;;;1.12;62.09
34103;BME280;20381;54.498;18.206;2023-04-03T02:34:26;100900.50;;;1.16;62.42
34103;BME280;20381;54.498;18.206;2023-04-03T02:36:54;100903.09;;;1.20;62.63
34103;BME280;20381;54.498;18.206;2023-04-03T02:39:20;100908.25;;;1.19;62.09
34103;BME280;20381;54.498;18.206;2023-04-03T02:41:46;100911.61;;;1.15;62.24
34103;BME280;20381;54.498;18.206;2023-04-03T02:44:13;100906.05;;;1.14;62.49
34103;BME280;20381;54.498;18.206;2023-04-03T02:46:39;100909.05;;;1.15;62.48
34103;BME280;20381;54.498;18.206;2023-04-03T02:49:06;100904.78;;;1.17;62.29
34103;BME280;20381;54.498;18.206;2023-04-03T02:51:32;100917.67;;;1.20;62.33
34103;BME280;20381;54.498;18.206;2023-04-03T02:53:58;100909.91;;;1.14;62.02
34103;BME280;20381;54.498;18.206;2023-04-03T02:56:24;100920.53;;;1.05;62.06
34103;BME280;20381;54.498;18.206;2023-04-03T02:58:52;100916.73;;;1.11;62.35
34103;BME280;20381;54.498;18.206;2023-04-03T03:01:18;100912.91;;;1.15;62.01
34103;BME280;20381;54.498;18.206;2023-04-03T03:03:45;100921.02;;;1.09;62.17
34103;BME280;20381;54.498;18.206;2023-04-03T03:06:16;100916.30;;;1.10;61.93
34103;BME280;20381;54.498;18.206;2023-04-03T03:08:43;100914.61;;;1.14;62.15
34103;BME280;20381;54.498;18.206;2023-04-03T03:11:10;100915.94;;;1.16;61.71
34103;BME280;20381;54.498;18.206;2023-04-03T03:13:36;100926.59;;;1.12;61.92
34103;BME280;20381;54.498;18.206;2023-04-03T03:16:03;100926.59;;;1.10;61.41
34103;BME280;20381;54.498;18.206;2023-04-03T03:18:30;100927.81;;;1.04;61.64
34103;BME280;20381;54.498;18.206;2023-04-03T03:20:59;100928.67;;;1.05;61.82
34103;BME280;20381;54.498;18.206;2023-04-03T03:23:28;100931.22;;;1.03;61.52
34103;BME280;20381;54.498;18.206;2023-04-03T03:26:06;100929.50;;;1.02;61.30
34103;BME280;20381;54.498;18.206;2023-04-03T03:28:34;100928.25;;;1.05;61.45
34103;BME280;20381;54.498;18.206;2023-04-03T03:31:02;100926.59;;;1.10;61.54
34103;BME280;20381;54.498;18.206;2023-04-03T03:33:29;100931.77;;;1.14;60.46
34103;BME280;20381;54.498;18.206;2023-04-03T03:35:56;100938.20;;;1.14;60.93
34103;BME280;20381;54.498;18.206;2023-04-03T03:38:23;100933.88;;;1.09;60.72
34103;BME280;20381;54.498;18.206;2023-04-03T03:40:50;100928.31;;;1.10;60.78
34103;BME280;20381;54.498;18.206;2023-04-03T03:43:18;100936.52;;;1.16;61.08
34103;BME280;20381;54.498;18.206;2023-04-03T03:45:44;100939.11;;;1.20;61.16
34103;BME280;20381;54.498;18.206;2023-04-03T03:48:12;100927.59;;;1.25;61.02
34103;BME280;20381;54.498;18.206;2023-04-03T03:50:38;100931.88;;;1.24;60.52
34103;BME280;20381;54.498;18.206;2023-04-03T03:53:05;100935.31;;;1.23;60.43
34103;BME280;20381;54.498;18.206;2023-04-03T03:55:31;100945.61;;;1.25;60.65
34103;BME280;20381;54.498;18.206;2023-04-03T03:57:59;100943.38;;;1.17;60.30
34103;BME280;20381;54.498;18.206;2023-04-03T04:00:26;100944.60;;;1.10;60.40
34103;BME280;20381;54.498;18.206;2023-04-03T04:02:53;100945.06;;;1.13;60.53
34103;BME280;20381;54.498;18.206;2023-04-03T04:05:19;100948.42;;;1.09;59.69
34103;BME280;20381;54.498;18.206;2023-04-03T04:07:45;100952.13;;;0.95;59.93
34103;BME280;20381;54.498;18.206;2023-04-03T04:10:11;100954.66;;;0.92;60.43
34103;BME280;20381;54.498;18.206;2023-04-03T04:12:39;100952.19;;;0.98;59.74
34103;BME280;20381;54.498;18.206;2023-04-03T04:15:06;100962.05;;;1.00;58.98
34103;BME280;20381;54.498;18.206;2023-04-03T04:17:33;100954.23;;;0.91;59.19
34103;BME280;20381;54.498;18.206;2023-04-03T04:20:02;100965.41;;;0.93;59.93
34103;BME280;20381;54.498;18.206;2023-04-03T04:22:30;100955.06;;;0.87;59.88
34103;BME280;20381;54.498;18.206;2023-04-03T04:24:57;100954.92;;;0.78;58.80
34103;BME280;20381;54.498;18.206;2023-04-03T04:27:25;100961.28;;;0.72;59.04
34103;BME280;20381;54.498;18.206;2023-04-03T04:29:53;100961.17;;;0.62;59.71
34103;BME280;20381;54.498;18.206;2023-04-03T04:32:19;100961.56;;;0.60;59.55
34103;BME280;20381;54.498;18.206;2023-04-03T04:34:47;100965.49;;;0.66;58.83
34103;BME280;20381;54.498;18.206;2023-04-03T04:37:13;100968.53;;;0.68;59.38
34103;BME280;20381;54.498;18.206;2023-04-03T04:39:41;100963.00;;;0.73;59.38
34103;BME280;20381;54.498;18.206;2023-04-03T04:42:07;100963.45;;;0.74;58.93
34103;BME280;20381;54.498;18.206;2023-04-03T04:44:37;100969.56;;;0.82;59.48
34103;BME280;20381;54.498;18.206;2023-04-03T04:47:05;100969.20;;;0.88;59.21
34103;BME280;20381;54.498;18.206;2023-04-03T04:49:33;100963.23;;;0.91;59.04
34103;BME280;20381;54.498;18.206;2023-04-03T04:52:02;100972.23;;;0.91;59.14
34103;BME280;20381;54.498;18.206;2023-04-03T04:54:28;100981.77;;;0.98;58.53
34103;BME280;20381;54.498;18.206;2023-04-03T04:57:00;100971.52;;;1.03;58.92
34103;BME280;20381;54.498;18.206;2023-04-03T04:59:26;100974.21;;;1.14;58.84
34103;BME280;20381;54.498;18.206;2023-04-03T05:01:59;100981.14;;;1.18;58.90
34103;BME280;20381;54.498;18.206;2023-04-03T05:04:23;100988.48;;;1.26;59.02
34103;BME280;20381;54.498;18.206;2023-04-03T05:06:51;100983.28;;;1.20;58.03
34103;BME280;20381;54.498;18.206;2023-04-03T05:09:17;100982.30;;;1.08;58.37
34103;BME280;20381;54.498;18.206;2023-04-03T05:11:51;100989.09;;;1.03;59.01
34103;BME280;20381;54.498;18.206;2023-04-03T05:14:21;100980.84;;;0.93;57.53
34103;BME280;20381;54.498;18.206;2023-04-03T05:16:47;100985.09;;;0.91;58.93
34103;BME280;20381;54.498;18.206;2023-04-03T05:19:18;100986.91;;;0.98;59.13
34103;BME280;20381;54.498;18.206;2023-04-03T05:21:47;100994.62;;;0.98;58.93
34103;BME280;20381;54.498;18.206;2023-04-03T05:24:17;100995.12;;;1.05;58.96
34103;BME280;20381;54.498;18.206;2023-04-03T05:26:45;100996.47;;;1.10;58.80
34103;BME280;20381;54.498;18.206;2023-04-03T05:29:16;100998.26;;;1.16;59.25
34103;BME280;20381;54.498;18.206;2023-04-03T05:31:39;100991.45;;;1.22;59.08
34103;BME280;20381;54.498;18.206;2023-04-03T05:34:06;101000.98;;;1.29;58.94
34103;BME280;20381;54.498;18.206;2023-04-03T05:36:32;100989.86;;;1.33;59.09
34103;BME280;20381;54.498;18.206;2023-04-03T05:39:03;100992.58;;;1.47;59.59
34103;BME280;20381;54.498;18.206;2023-04-03T05:41:27;100997.05;;;1.64;59.25
34103;BME280;20381;54.498;18.206;2023-04-03T05:43:57;100993.77;;;1.80;59.25
34103;BME280;20381;54.498;18.206;2023-04-03T05:46:22;100991.30;;;1.95;59.51
34103;BME280;20381;54.498;18.206;2023-04-03T05:48:48;100991.84;;;2.09;59.48
34103;BME280;20381;54.498;18.206;2023-04-03T05:51:23;100999.27;;;2.26;59.51
34103;BME280;20381;54.498;18.206;2023-04-03T05:54:19;100989.06;;;2.38;59.24
34103;BME280;20381;54.498;18.206;2023-04-03T05:56:45;101000.65;;;2.35;59.24
34103;BME280;20381;54.498;18.206;2023-04-03T05:59:16;100998.94;;;2.39;59.75
34103;BME280;20381;54.498;18.206;2023-04-03T06:01:47;101005.55;;;2.68;59.62
34103;BME280;20381;54.498;18.206;2023-04-03T06:04:10;100996.19;;;2.88;58.07
34103;BME280;20381;54.498;18.206;2023-04-03T06:06:45;101001.81;;;2.93;57.97
34103;BME280;20381;54.498;18.206;2023-04-03T06:09:15;101006.05;;;2.78;57.89
34103;BME280;20381;54.498;18.206;2023-04-03T06:11:42;101000.39;;;2.68;58.08
34103;BME280;20381;54.498;18.206;2023-04-03T06:14:11;101002.98;;;2.71;59.07
34103;BME280;20381;54.498;18.206;2023-04-03T06:16:43;101009.15;;;3.02;58.12
34103;BME280;20381;54.498;18.206;2023-04-03T06:19:10;101002.74;;;3.13;58.97
34103;BME280;20381;54.498;18.206;2023-04-03T06:21:37;100999.83;;;3.40;58.77
34103;BME280;20381;54.498;18.206;2023-04-03T06:24:09;101007.59;;;3.46;56.55
34103;BME280;20381;54.498;18.206;2023-04-03T06:26:37;101005.00;;;3.46;57.14
34103;BME280;20381;54.498;18.206;2023-04-03T06:29:05;101010.18;;;3.55;57.60
34103;BME280;20381;54.498;18.206;2023-04-03T06:31:33;101018.84;;;3.81;57.86
34103;BME280;20381;54.498;18.206;2023-04-03T06:34:01;101024.02;;;3.81;57.71
34103;BME280;20381;54.498;18.206;2023-04-03T06:36:29;101030.89;;;3.73;56.74
34103;BME280;20381;54.498;18.206;2023-04-03T06:38:55;101022.26;;;3.59;55.27
34103;BME280;20381;54.498;18.206;2023-04-03T06:41:22;101032.59;;;3.59;56.65
34103;BME280;20381;54.498;18.206;2023-04-03T06:43:48;101030.04;;;3.88;56.87
34103;BME280;20381;54.498;18.206;2023-04-03T06:46:20;101036.09;;;4.38;58.03
34103;BME280;20381;54.498;18.206;2023-04-03T06:48:48;101029.16;;;4.55;56.26
34103;BME280;20381;54.498;18.206;2023-04-03T06:51:24;101033.06;;;4.35;55.46
34103;BME280;20381;54.498;18.206;2023-04-03T06:53:54;101033.52;;;4.32;55.30
34103;BME280;20381;54.498;18.206;2023-04-03T06:56:22;101044.27;;;4.33;54.86
34103;BME280;20381;54.498;18.206;2023-04-03T06:58:49;101038.65;;;4.62;54.33
34103;BME280;20381;54.498;18.206;2023-04-03T07:01:17;101053.32;;;4.54;55.14
34103;BME280;20381;54.498;18.206;2023-04-03T07:03:51;101039.50;;;4.58;53.73
34103;BME280;20381;54.498;18.206;2023-04-03T07:06:19;101042.94;;;4.59;53.80
34103;BME280;20381;54.498;18.206;2023-04-03T07:08:47;101064.50;;;4.56;53.29
34103;BME280;20381;54.498;18.206;2023-04-03T07:11:18;101061.92;;;4.50;54.35
34103;BME280;20381;54.498;18.206;2023-04-03T07:13:49;101059.31;;;4.75;54.26
34103;BME280;20381;54.498;18.206;2023-04-03T07:16:12;101062.70;;;5.04;54.38
34103;BME280;20381;54.498;18.206;2023-04-03T07:18:38;101060.44;;;6.09;56.06
34103;BME280;20381;54.498;18.206;2023-04-03T07:21:05;101057.13;;;6.87;55.95
34103;BME280;20381;54.498;18.206;2023-04-03T07:23:33;101061.11;;;7.54;56.20
34103;BME280;20381;54.498;18.206;2023-04-03T07:26:02;101069.81;;;6.76;50.61
34103;BME280;20381;54.498;18.206;2023-04-03T07:28:28;101073.66;;;5.61;51.51
34103;BME280;20381;54.498;18.206;2023-04-03T07:31:05;101074.86;;;4.50;50.30
34103;BME280;20381;54.498;18.206;2023-04-03T07:33:35;101086.03;;;3.94;51.95
34103;BME280;20381;54.498;18.206;2023-04-03T07:36:05;101071.41;;;3.96;53.93
34103;BME280;20381;54.498;18.206;2023-04-03T07:38:36;101096.00;;;4.54;51.08
34103;BME280;20381;54.498;18.206;2023-04-03T07:41:06;101079.05;;;5.19;53.86
34103;BME280;20381;54.498;18.206;2023-04-03T07:43:32;101085.65;;;5.79;53.61
34103;BME280;20381;54.498;18.206;2023-04-03T07:46:02;101080.83;;;6.54;53.25
34103;BME280;20381;54.498;18.206;2023-04-03T07:48:31;101080.84;;;6.94;53.16
34103;BME280;20381;54.498;18.206;2023-04-03T07:51:05;101077.78;;;7.69;52.55
34103;BME280;20381;54.498;18.206;2023-04-03T07:53:30;101069.48;;;8.03;51.76
34103;BME280;20381;54.498;18.206;2023-04-03T07:55:57;101072.88;;;8.62;52.78
34103;BME280;20381;54.498;18.206;2023-04-03T07:58:29;101078.03;;;8.65;50.62
34103;BME280;20381;54.498;18.206;2023-04-03T08:00:55;101076.49;;;8.55;51.21
34103;BME280;20381;54.498;18.206;2023-04-03T08:03:22;101077.64;;;7.78;51.47
34103;BME280;20381;54.498;18.206;2023-04-03T08:05:49;101083.42;;;7.70;51.16
34103;BME280;20381;54.498;18.206;2023-04-03T08:08:21;101058.67;;;7.73;50.74
34103;BME280;20381;54.498;18.206;2023-04-03T08:10:57;101058.67;;;7.73;50.74
34103;BME280;20381;54.498;18.206;2023-04-03T08:13:21;101084.84;;;7.90;52.79
34103;BME280;20381;54.498;18.206;2023-04-03T08:15:51;101080.47;;;7.63;49.61
34103;BME280;20381;54.498;18.206;2023-04-03T08:18:18;101076.59;;;7.93;50.44
34103;BME280;20381;54.498;18.206;2023-04-03T08:20:47;101075.88;;;8.39;50.61
34103;BME280;20381;54.498;18.206;2023-04-03T08:23:13;101047.52;;;8.96;48.76
34103;BME280;20381;54.498;18.206;2023-04-03T08:25:43;101069.39;;;9.10;47.97
34103;BME280;20381;54.498;18.206;2023-04-03T08:28:10;101078.28;;;10.21;51.02
34103;BME280;20381;54.498;18.206;2023-04-03T08:30:41;101053.63;;;11.00;48.24
34103;BME280;20381;54.498;18.206;2023-04-03T08:33:10;101061.63;;;10.79;48.39
34103;BME280;20381;54.498;18.206;2023-04-03T08:35:42;101061.88;;;11.01;49.93
34103;BME280;20381;54.498;18.206;2023-04-03T08:38:12;101072.34;;;11.47;50.07
34103;BME280;20381;54.498;18.206;2023-04-03T08:40:40;101075.45;;;10.98;49.52
34103;BME280;20381;54.498;18.206;2023-04-03T08:43:21;101073.69;;;9.95;48.26
34103;BME280;20381;54.498;18.206;2023-04-03T08:45:50;101076.52;;;10.03;49.13
34103;BME280;20381;54.498;18.206;2023-04-03T08:48:24;101070.09;;;8.49;47.82
34103;BME280;20381;54.498;18.206;2023-04-03T08:50:53;101084.27;;;7.71;48.80
34103;BME280;20381;54.498;18.206;2023-04-03T08:53:23;101068.88;;;8.14;49.41
34103;BME280;20381;54.498;18.206;2023-04-03T08:55:51;101068.88;;;8.14;49.41
34103;BME280;20381;54.498;18.206;2023-04-03T08:58:26;101072.92;;;8.61;48.72
34103;BME280;20381;54.498;18.206;2023-04-03T09:00:57;101081.21;;;8.83;49.06
34103;BME280;20381;54.498;18.206;2023-04-03T09:03:29;101062.33;;;9.78;49.20
34103;BME280;20381;54.498;18.206;2023-04-03T09:06:04;101062.33;;;9.78;49.20
34103;BME280;20381;54.498;18.206;2023-04-03T09:08:46;101075.07;;;10.29;48.28
34103;BME280;20381;54.498;18.206;2023-04-03T09:24:39;101081.44;;;10.35;47.75
34103;BME280;20381;54.498;18.206;2023-04-03T09:27:06;101081.44;;;10.35;47.75
34103;BME280;20381;54.498;18.206;2023-04-03T09:29:37;101073.02;;;8.79;44.36
34103;BME280;20381;54.498;18.206;2023-04-03T09:32:25;101100.54;;;8.15;47.42
34103;BME280;20381;54.498;18.206;2023-04-03T09:34:43;101080.47;;;8.23;47.78
34103;BME280;20381;54.498;18.206;2023-04-03T09:37:06;101084.21;;;9.90;50.90
34103;BME280;20381;54.498;18.206;2023-04-03T09:39:51;101084.21;;;9.90;50.90
34103;BME280;20381;54.498;18.206;2023-04-03T09:42:25;101067.27;;;12.40;51.76
34103;BME280;20381;54.498;18.206;2023-04-03T09:45:00;101067.48;;;14.96;48.28
34103;BME280;20381;54.498;18.206;2023-04-03T09:47:32;101062.73;;;16.53;47.79
34103;BME280;20381;54.498;18.206;2023-04-03T09:50:17;101050.62;;;16.58;47.63
34103;BME280;20381;54.498;18.206;2023-04-03T09:52:48;101058.35;;;15.62;45.53
34103;BME280;20381;54.498;18.206;2023-04-03T09:55:26;101062.10;;;14.37;46.89
34103;BME280;20381;54.498;18.206;2023-04-03T09:58:03;101065.89;;;13.87;43.98
34103;BME280;20381;54.498;18.206;2023-04-03T10:00:37;101063.67;;;13.31;45.86
34103;BME280;20381;54.498;18.206;2023-04-03T10:03:08;101061.55;;;12.67;46.13
34103;BME280;20381;54.498;18.206;2023-04-03T10:05:40;101064.23;;;12.12;46.76
34103;BME280;20381;54.498;18.206;2023-04-03T10:10:48;101074.03;;;10.52;46.38
34103;BME280;20381;54.498;18.206;2023-04-03T10:13:21;101072.98;;;10.24;46.17
34103;BME280;20381;54.498;18.206;2023-04-03T10:16:12;101090.26;;;9.73;46.18
34103;BME280;20381;54.498;18.206;2023-04-03T10:21:32;101082.78;;;8.42;46.00
34103;BME280;20381;54.498;18.206;2023-04-03T10:24:14;101082.83;;;7.81;46.15
34103;BME280;20381;54.498;18.206;2023-04-03T10:34:50;101080.95;;;6.41;46.76
34103;BME280;20381;54.498;18.206;2023-04-03T10:37:29;101075.22;;;5.90;46.64
34103;BME280;20381;54.498;18.206;2023-04-03T10:40:08;101081.55;;;5.38;46.96
34103;BME280;20381;54.498;18.206;2023-04-03T10:42:39;101074.63;;;5.42;47.35
34103;BME280;20381;54.498;18.206;2023-04-03T10:45:30;101077.86;;;5.84;47.79
34103;BME280;20381;54.498;18.206;2023-04-03T10:48:19;101075.54;;;7.42;48.78
34103;BME280;20381;54.498;18.206;2023-04-03T10:56:42;101056.94;;;8.29;45.99
34103;BME280;20381;54.498;18.206;2023-04-03T11:01:48;101068.41;;;7.59;46.50
34103;BME280;20381;54.498;18.206;2023-04-03T11:04:18;101064.97;;;7.55;47.15
34103;BME280;20381;54.498;18.206;2023-04-03T11:06:53;101079.53;;;7.67;46.75
34103;BME280;20381;54.498;18.206;2023-04-03T11:09:26;101073.61;;;7.59;47.19
34103;BME280;20381;54.498;18.206;2023-04-03T11:12:00;101072.77;;;7.55;47.02
34103;BME280;20381;54.498;18.206;2023-04-03T11:14:31;101072.22;;;7.63;47.33
34103;BME280;20381;54.498;18.206;2023-04-03T11:17:54;101076.88;;;7.73;47.29
34103;BME280;20381;54.498;18.206;2023-04-03T11:22:33;101070.64;;;7.83;47.26
34103;BME280;20381;54.498;18.206;2023-04-03T11:27:47;101073.27;;;7.15;45.87
34103;BME280;20381;54.498;18.206;2023-04-03T11:33:55;101076.49;;;6.56;47.25
34103;BME280;20381;54.498;18.206;2023-04-03T11:35:41;101056.04;;;9.04;46.24
34103;BME280;20381;54.498;18.206;2023-04-03T11:38:06;101051.77;;;10.72;47.52
34103;BME280;20381;54.498;18.206;2023-04-03T11:40:36;101046.83;;;10.27;43.37
34103;BME280;20381;54.498;18.206;2023-04-03T11:43:25;101052.58;;;9.47;45.39
34103;BME280;20381;54.498;18.206;2023-04-03T11:46:03;101058.56;;;9.30;45.25
34103;BME280;20381;54.498;18.206;2023-04-03T11:53:47;101053.30;;;11.41;43.93
34103;BME280;20381;54.498;18.206;2023-04-03T11:59:19;101060.66;;;9.93;42.78
34103;BME280;20381;54.498;18.206;2023-04-03T12:01:54;101051.58;;;10.29;44.40
34103;BME280;20381;54.498;18.206;2023-04-03T12:04:24;101051.61;;;10.45;44.83
34103;BME280;20381;54.498;18.206;2023-04-03T12:07:13;101041.03;;;9.77;42.18
34103;BME280;20381;54.498;18.206;2023-04-03T12:12:29;101033.47;;;9.26;44.85
34103;BME280;20381;54.498;18.206;2023-04-03T12:14:55;101048.67;;;9.86;45.78
34103;BME280;20381;54.498;18.206;2023-04-03T12:17:31;101024.11;;;10.65;46.49
34103;BME280;20381;54.498;18.206;2023-04-03T12:19:56;101042.78;;;10.98;42.77
34103;BME280;20381;54.498;18.206;2023-04-03T12:22:22;101030.26;;;9.92;42.33
34103;BME280;20381;54.498;18.206;2023-04-03T12:24:51;101045.16;;;8.84;43.24
34103;BME280;20381;54.498;18.206;2023-04-03T12:27:30;101042.41;;;7.59;43.19
34103;BME280;20381;54.498;18.206;2023-04-03T12:30:20;101043.84;;;7.15;43.83
34103;BME280;20381;54.498;18.206;2023-04-03T12:33:10;101050.61;;;6.92;44.05
34103;BME280;20381;54.498;18.206;2023-04-03T12:35:43;101049.41;;;7.19;45.30
34103;BME280;20381;54.498;18.206;2023-04-03T12:41:23;101039.20;;;7.38;44.60
34103;BME280;20381;54.498;18.206;2023-04-03T12:44:21;101034.38;;;7.74;45.08
34103;BME280;20381;54.498;18.206;2023-04-03T12:46:50;101034.22;;;8.12;45.31
34103;BME280;20381;54.498;18.206;2023-04-03T12:49:39;101033.81;;;8.37;44.71
34103;BME280;20381;54.498;18.206;2023-04-03T12:52:24;101029.63;;;8.01;44.22
34103;BME280;20381;54.498;18.206;2023-04-03T12:54:46;101033.66;;;6.98;44.04
34103;BME280;20381;54.498;18.206;2023-04-03T12:57:29;101031.45;;;6.60;44.73
34103;BME280;20381;54.498;18.206;2023-04-03T13:00:11;101024.63;;;6.53;45.05
34103;BME280;20381;54.498;18.206;2023-04-03T13:02:34;101040.26;;;6.43;45.17
34103;BME280;20381;54.498;18.206;2023-04-03T13:05:13;101038.23;;;6.29;45.35
34103;BME280;20381;54.498;18.206;2023-04-03T13:07:39;101039.67;;;6.14;45.81
34103;BME280;20381;54.498;18.206;2023-04-03T13:10:17;101047.67;;;5.74;46.03
34103;BME280;20381;54.498;18.206;2023-04-03T13:12:51;101043.61;;;5.30;46.17
34103;BME280;20381;54.498;18.206;2023-04-03T13:17:53;101041.16;;;4.93;47.70
34103;BME280;20381;54.498;18.206;2023-04-03T13:20:28;101047.14;;;5.01;46.99
34103;BME280;20381;54.498;18.206;2023-04-03T13:23:04;101038.43;;;5.30;47.41
34103;BME280;20381;54.498;18.206;2023-04-03T13:25:34;101004.62;;;5.51;46.84
34103;BME280;20381;54.498;18.206;2023-04-03T13:28:03;101034.84;;;5.55;46.52
34103;BME280;20381;54.498;18.206;2023-04-03T13:30:35;101022.22;;;5.72;46.29
34103;BME280;20381;54.498;18.206;2023-04-03T13:33:17;101025.09;;;5.96;46.08
34103;BME280;20381;54.498;18.206;2023-04-03T13:35:41;101026.67;;;6.15;46.22
34103;BME280;20381;54.498;18.206;2023-04-03T13:38:29;101025.43;;;6.08;45.29
34103;BME280;20381;54.498;18.206;2023-04-03T13:40:48;101023.84;;;5.88;46.20
34103;BME280;20381;54.498;18.206;2023-04-03T13:56:43;101018.19;;;5.90;46.07
34103;BME280;20381;54.498;18.206;2023-04-03T14:01:51;101022.78;;;5.48;45.90
34103;BME280;20381;54.498;18.206;2023-04-03T14:06:50;101018.53;;;5.38;46.57
34103;BME280;20381;54.498;18.206;2023-04-03T14:09:18;101014.16;;;5.49;46.43
34103;BME280;20381;54.498;18.206;2023-04-03T14:11:50;101009.75;;;5.64;46.59
34103;BME280;20381;54.498;18.206;2023-04-03T14:14:19;101019.58;;;5.78;46.41
34103;BME280;20381;54.498;18.206;2023-04-03T14:16:53;101020.92;;;5.72;45.52
34103;BME280;20381;54.498;18.206;2023-04-03T14:19:25;101017.18;;;5.47;45.53
34103;BME280;20381;54.498;18.206;2023-04-03T14:21:52;101011.69;;;5.25;45.93
34103;BME280;20381;54.498;18.206;2023-04-03T14:24:21;101012.12;;;5.18;45.85
34103;BME280;20381;54.498;18.206;2023-04-03T14:26:48;101008.27;;;5.16;46.20
34103;BME280;20381;54.498;18.206;2023-04-03T14:29:17;101000.55;;;5.07;45.75
34103;BME280;20381;54.498;18.206;2023-04-03T14:31:47;100998.93;;;4.82;45.05